Time;durP1;ratioP1;P1;durP2;ratioP2;P2;SDS_P1;SDS_P2;PMS_P1;PMS_P2;Temp;Humidity;BMP_temperature;BMP_pressure;BME280_temperature;BME280_humidity;BME280_pressure;Samples;Min_cycle;Max_cycle;Signal;HPM_P1;HPM_P2
2024/01/03 00:03:25;;;;;;;1.95;0.80;;;;;;;17.41;61.82;98291.09;10534916;28;20300;-49
2024/01/03 00:08:30;;;;;;;2.22;0.75;;;;;;;17.38;60.80;98291.00;10531153;28;20032;-48
2024/01/03 00:13:32;;;;;;;4.05;0.82;;;;;;;17.37;61.87;98303.63;10519506;28;20040;-47
2024/01/03 00:18:36;;;;;;;2.60;0.70;;;;;;;17.40;60.30;98299.47;10534994;28;20518;-50
2024/01/03 00:23:50;;;;;;;1.60;0.80;;;;;;;17.34;61.73;98296.28;10516220;28;20052;-49
2024/01/03 00:28:51;;;;;;;1.27;0.60;;;;;;;17.38;61.69;98318.56;10516535;28;20040;-47
2024/01/03 00:33:51;;;;;;;2.25;0.82;;;;;;;17.38;60.09;98315.09;10534169;28;20024;-47
2024/01/03 00:38:52;;;;;;;3.67;0.90;;;;;;;17.35;61.49;98340.69;10534291;28;20705;-46
2024/01/03 00:43:52;;;;;;;3.53;0.70;;;;;;;17.36;61.24;98363.66;10533602;28;20487;-46
2024/01/03 00:48:52;;;;;;;4.47;1.33;;;;;;;17.36;60.94;98358.31;10534075;28;20024;-46
2024/01/03 00:53:53;;;;;;;2.03;0.68;;;;;;;17.38;60.74;98374.81;10533563;28;20266;-46
2024/01/03 00:58:53;;;;;;;3.80;0.65;;;;;;;17.41;60.35;98398.25;10533720;28;20024;-50
2024/01/03 01:03:54;;;;;;;5.47;1.10;;;;;;;17.43;59.94;98398.69;10532135;28;20056;-46
2024/01/03 01:08:54;;;;;;;1.70;0.60;;;;;;;17.40;61.38;98396.66;10532995;28;20058;-49
2024/01/03 01:13:55;;;;;;;2.53;1.45;;;;;;;17.42;60.61;98420.47;10532764;28;20679;-49
2024/01/03 01:18:55;;;;;;;3.65;1.10;;;;;;;17.42;59.98;98415.09;10532932;28;20070;-45
2024/01/03 01:23:56;;;;;;;3.45;1.05;;;;;;;17.40;60.19;98428.81;10532912;28;20047;-47
2024/01/03 01:28:56;;;;;;;3.03;0.75;;;;;;;17.41;60.88;98425.03;10533054;28;20022;-47
2024/01/03 01:33:57;;;;;;;2.05;0.98;;;;;;;17.37;60.45;98432.19;10532461;28;20076;-46
2024/01/03 01:38:57;;;;;;;4.23;0.80;;;;;;;17.37;61.26;98442.13;10514547;28;20027;-46
2024/01/03 01:43:57;;;;;;;2.30;0.80;;;;;;;17.39;60.28;98462.09;10532014;28;20293;-47
2024/01/03 01:48:58;;;;;;;4.30;0.90;;;;;;;17.38;60.12;98468.56;10514290;28;20032;-46
2024/01/03 01:53:58;;;;;;;4.75;0.90;;;;;;;17.38;60.41;98475.81;10513827;28;20022;-47
2024/01/03 01:58:59;;;;;;;2.42;0.88;;;;;;;17.41;60.76;98469.81;10497639;28;20035;-48
2024/01/03 02:04:03;;;;;;;2.97;0.70;;;;;;;17.41;61.04;98470.59;10531669;28;20426;-46
2024/01/03 02:09:04;;;;;;;3.92;0.85;;;;;;;17.37;60.86;98477.72;10504387;28;20419;-46
2024/01/03 02:14:04;;;;;;;1.83;1.23;;;;;;;17.35;60.87;98495.25;10521303;28;20027;-46
2024/01/03 02:19:04;;;;;;;2.83;1.10;;;;;;;17.34;61.06;98483.00;10540127;28;20023;-45
2024/01/03 02:24:05;;;;;;;4.28;0.90;;;;;;;17.29;61.56;98508.13;10539438;28;20047;-48
2024/01/03 02:29:05;;;;;;;2.78;1.13;;;;;;;17.31;60.51;98507.78;10539699;28;20019;-46
2024/01/03 02:34:06;;;;;;;1.43;0.70;;;;;;;17.32;60.36;98510.13;10538897;28;20062;-46
2024/01/03 02:39:06;;;;;;;2.57;1.20;;;;;;;17.31;60.04;98515.81;10539094;28;20760;-46
2024/01/03 02:44:06;;;;;;;3.45;1.00;;;;;;;17.31;59.95;98527.31;10520242;28;20296;-46
2024/01/03 02:49:07;;;;;;;2.93;1.07;;;;;;;17.32;59.96;98528.88;10520308;28;20060;-46
2024/01/03 02:54:07;;;;;;;2.63;1.00;;;;;;;17.30;60.31;98524.97;10519885;28;20277;-49
2024/01/03 02:59:07;;;;;;;4.97;1.00;;;;;;;17.31;60.75;98523.84;10538339;28;20276;-47
2024/01/03 03:04:08;;;;;;;2.78;1.05;;;;;;;17.31;60.15;98530.00;10537703;28;20297;-46
2024/01/03 03:09:08;;;;;;;4.07;1.00;;;;;;;17.30;59.78;98536.47;10527417;28;20680;-47
2024/01/03 03:14:10;;;;;;;4.97;0.97;;;;;;;17.32;61.36;98550.31;10527938;28;20270;-46
2024/01/03 03:19:10;;;;;;;3.08;1.00;;;;;;;17.31;59.79;98540.72;10537115;28;20274;-50
2024/01/03 03:24:10;;;;;;;3.55;1.00;;;;;;;17.29;60.19;98560.91;10537190;28;20085;-50
2024/01/03 03:29:10;;;;;;;2.93;1.03;;;;;;;17.33;60.17;98554.53;10518232;28;20020;-46
2024/01/03 03:34:11;;;;;;;3.10;1.10;;;;;;;17.35;60.83;98567.59;10536844;28;20274;-48
2024/01/03 03:39:11;;;;;;;3.33;0.97;;;;;;;17.31;60.59;98548.75;10536456;28;20903;-45
2024/01/03 03:44:11;;;;;;;5.63;1.10;;;;;;;17.36;60.16;98574.50;10518079;28;20339;-47
2024/01/03 03:49:12;;;;;;;4.93;1.63;;;;;;;17.30;59.56;98552.53;10535901;28;20274;-46
2024/01/03 03:54:12;;;;;;;4.32;0.75;;;;;;;17.30;60.69;98568.63;10535905;28;20258;-49
2024/01/03 03:59:13;;;;;;;3.13;0.90;;;;;;;17.34;60.20;98555.31;10535451;28;20421;-47
2024/01/03 04:04:13;;;;;;;3.47;0.88;;;;;;;17.31;61.19;98564.03;10535651;28;20286;-46
2024/01/03 04:09:14;;;;;;;1.80;0.70;;;;;;;17.26;60.61;98567.72;10528226;28;20055;-46
2024/01/03 04:14:14;;;;;;;4.38;1.02;;;;;;;17.28;60.03;98580.75;10517259;28;20753;-47
2024/01/03 04:19:14;;;;;;;4.30;1.17;;;;;;;17.25;60.29;98584.91;10516745;28;20028;-47
2024/01/03 04:24:14;;;;;;;4.37;1.30;;;;;;;17.25;59.57;98596.41;10534995;28;20089;-50
2024/01/03 04:29:15;;;;;;;2.87;0.97;;;;;;;17.29;60.69;98598.41;10534297;28;20682;-46
2024/01/03 04:34:15;;;;;;;5.82;1.55;;;;;;;17.28;60.10;98594.94;10534866;28;20274;-48
2024/01/03 04:39:17;;;;;;;4.47;1.63;;;;;;;17.25;60.00;98600.97;10533039;28;20032;-46
2024/01/03 04:44:17;;;;;;;2.35;0.80;;;;;;;17.27;60.40;98600.63;10533933;28;20286;-46
2024/01/03 04:49:18;;;;;;;4.17;1.17;;;;;;;17.27;59.96;98608.66;10533478;28;20031;-47
2024/01/03 04:54:18;;;;;;;4.77;1.30;;;;;;;17.24;60.91;98599.41;10533481;28;20270;-48
2024/01/03 04:59:18;;;;;;;2.60;0.90;;;;;;;17.25;60.55;98615.13;10498273;28;20864;-47
2024/01/03 05:04:18;;;;;;;2.30;0.97;;;;;;;17.25;59.82;98600.97;10533252;28;20339;-49
2024/01/03 05:09:19;;;;;;;2.15;0.80;;;;;;;17.23;59.94;98604.00;10523287;28;20754;-47
2024/01/03 05:14:19;;;;;;;2.80;0.87;;;;;;;17.23;60.13;98598.63;10508233;28;20093;-47
2024/01/03 05:19:19;;;;;;;4.30;1.40;;;;;;;17.30;60.30;98602.66;10488741;28;20280;-47
2024/01/03 05:24:20;;;;;;;9.27;1.37;;;;;;;17.34;61.52;98615.03;10506017;28;20290;-48
2024/01/03 05:29:21;;;;;;;2.47;0.88;;;;;;;17.35;61.10;98611.22;10509285;28;20081;-52
2024/01/03 05:34:21;;;;;;;2.70;1.02;;;;;;;17.32;59.79;98624.53;10502185;28;20119;-46
2024/01/03 05:39:21;;;;;;;2.17;0.73;;;;;;;17.29;61.00;98625.19;10514050;28;20039;-46
2024/01/03 05:44:22;;;;;;;3.25;1.67;;;;;;;17.20;60.91;98615.38;10520140;28;20298;-47
2024/01/03 05:49:22;;;;;;;6.47;2.03;;;;;;;17.28;60.47;98619.03;10506436;28;20023;-48
2024/01/03 05:54:23;;;;;;;2.47;1.30;;;;;;;17.39;59.87;98622.81;10513558;28;20283;-51
2024/01/03 05:59:23;;;;;;;3.60;1.05;;;;;;;17.31;60.45;98622.97;10540366;28;20020;-47
2024/01/03 06:04:25;;;;;;;4.57;1.55;;;;;;;17.29;60.76;98622.53;10526811;28;20028;-50
2024/01/03 06:09:25;;;;;;;6.15;1.45;;;;;;;17.39;60.85;98638.88;10517264;28;20502;-51
2024/01/03 06:14:26;;;;;;;6.73;0.93;;;;;;;17.35;61.18;98600.50;10540124;28;20113;-48
2024/01/03 06:19:26;;;;;;;6.88;1.85;;;;;;;17.24;61.05;98626.97;10536780;28;20289;-48
2024/01/03 06:24:26;;;;;;;10.13;1.93;;;;;;;17.28;61.01;98631.66;10539304;28;20032;-50
2024/01/03 06:29:27;;;;;;;5.57;1.30;;;;;;;17.30;61.19;98635.56;10515215;28;20287;-49
2024/01/03 06:34:27;;;;;;;6.03;1.77;;;;;;;17.30;61.27;98635.56;10526445;28;20036;-48
2024/01/03 06:39:27;;;;;;;7.43;1.37;;;;;;;17.28;60.31;98642.38;10519883;28;20291;-48
2024/01/03 06:44:27;;;;;;;4.40;1.63;;;;;;;17.24;61.09;98640.38;10538508;28;20289;-51
2024/01/03 06:49:28;;;;;;;6.57;1.60;;;;;;;17.21;60.88;98648.31;10538198;28;20278;-49
2024/01/03 06:54:28;;;;;;;5.10;1.70;;;;;;;17.19;61.66;98653.22;10538302;28;20274;-51
2024/01/03 06:59:28;;;;;;;3.47;1.10;;;;;;;17.17;60.50;98642.06;10535376;28;20830;-49
2024/01/03 07:04:29;;;;;;;3.17;1.13;;;;;;;17.18;60.48;98659.69;10527316;28;20323;-48
2024/01/03 07:09:29;;;;;;;7.47;1.50;;;;;;;17.18;61.66;98671.19;10530595;28;20332;-47
2024/01/03 07:14:29;;;;;;;3.37;1.10;;;;;;;17.19;61.24;98672.75;10523429;28;20282;-48
2024/01/03 07:19:30;;;;;;;3.33;0.90;;;;;;;17.19;60.81;98678.09;10515397;28;20349;-47
2024/01/03 07:24:30;;;;;;;2.83;1.10;;;;;;;17.21;60.47;98693.81;10533513;28;20637;-47
2024/01/03 07:29:30;;;;;;;5.80;1.40;;;;;;;17.24;61.54;98698.50;10534258;28;20293;-46
2024/01/03 07:34:31;;;;;;;4.53;1.40;;;;;;;17.26;60.01;98688.25;10518679;28;20672;-47
2024/01/03 07:39:32;;;;;;;4.85;0.73;;;;;;;17.25;61.53;98706.22;10517848;28;20327;-49
2024/01/03 07:44:38;;;;;;;5.95;1.17;;;;;;;17.23;61.26;98711.13;10518582;28;20114;-48
2024/01/03 07:49:38;;;;;;;2.92;0.88;;;;;;;17.21;61.31;98708.00;10533551;28;20115;-48
2024/01/03 07:54:39;;;;;;;3.72;0.90;;;;;;;17.21;61.74;98713.34;10531512;28;20459;-50
2024/01/03 07:59:42;;;;;;;2.70;1.43;;;;;;;17.19;60.47;98712.91;10526242;28;20421;-49
2024/01/03 08:04:43;;;;;;;5.97;1.60;;;;;;;17.16;61.38;98721.59;10532006;28;20298;-47
2024/01/03 08:09:43;;;;;;;4.72;1.10;;;;;;;17.16;60.84;98731.53;10534078;28;20036;-47
2024/01/03 08:14:43;;;;;;;2.83;0.90;;;;;;;17.22;60.77;98725.63;10522416;28;20024;-46
2024/01/03 08:19:44;;;;;;;6.50;0.70;;;;;;;17.24;60.82;98731.44;10522456;28;20290;-51
2024/01/03 08:24:44;;;;;;;2.13;1.00;;;;;;;17.21;61.09;98742.03;10532988;28;20290;-48
2024/01/03 08:29:45;;;;;;;2.88;0.85;;;;;;;17.22;61.36;98743.59;10531551;28;20278;-47
2024/01/03 08:34:45;;;;;;;2.35;0.63;;;;;;;17.23;60.36;98745.16;10534325;28;20051;-46
2024/01/03 08:39:46;;;;;;;1.90;0.60;;;;;;;17.25;61.21;98735.66;10533747;28;20024;-46
2024/01/03 08:44:46;;;;;;;2.67;0.67;;;;;;;17.22;61.08;98738.25;10528749;28;20020;-50
2024/01/03 08:49:46;;;;;;;2.50;1.10;;;;;;;17.20;61.16;98751.19;10503683;28;20285;-48
2024/01/03 08:54:47;;;;;;;2.20;0.77;;;;;;;17.19;60.89;98744.28;10517515;28;20609;-46
2024/01/03 08:59:47;;;;;;;2.63;0.67;;;;;;;17.16;62.02;98758.31;10500387;28;20277;-48
2024/01/03 09:04:47;;;;;;;2.80;0.80;;;;;;;17.18;61.66;98756.88;10489452;28;20658;-47
2024/01/03 09:09:48;;;;;;;2.65;1.35;;;;;;;17.17;60.73;98758.00;10490529;28;20290;-47
2024/01/03 09:14:48;;;;;;;3.23;0.80;;;;;;;17.15;60.61;98754.06;10520242;28;20028;-48
2024/01/03 09:19:48;;;;;;;3.63;0.80;;;;;;;17.13;62.04;98775.81;10532750;28;20284;-49
2024/01/03 09:24:49;;;;;;;4.70;0.90;;;;;;;17.16;60.64;98774.38;10532559;28;20841;-53
2024/01/03 09:29:49;;;;;;;2.17;0.70;;;;;;;17.17;60.46;98779.44;10532303;28;20285;-47
2024/01/03 09:34:49;;;;;;;2.22;0.55;;;;;;;17.15;61.47;98783.53;10532830;28;20800;-47
2024/01/03 09:39:50;;;;;;;3.30;0.50;;;;;;;17.13;60.35;98781.19;10532040;28;20031;-47
2024/01/03 09:44:51;;;;;;;2.50;0.70;;;;;;;17.11;60.34;98794.13;10532622;28;20288;-49
2024/01/03 09:49:51;;;;;;;2.58;0.57;;;;;;;17.13;61.52;98793.78;10527418;28;20274;-50
2024/01/03 09:54:51;;;;;;;2.00;0.83;;;;;;;17.15;61.96;98791.56;10532489;28;20024;-48
2024/01/03 09:59:54;;;;;;;6.10;2.00;;;;;;;17.15;61.65;98794.25;10531768;28;20273;-47
2024/01/03 10:04:54;;;;;;;1.70;0.60;;;;;;;17.13;61.86;98799.94;10531914;28;20458;-47
2024/01/03 10:09:56;;;;;;;1.77;0.50;;;;;;;17.13;61.73;98801.81;10492434;28;20075;-47
2024/01/03 10:14:56;;;;;;;2.00;0.60;;;;;;;17.18;61.90;98806.97;10528633;28;20024;-48
2024/01/03 10:19:57;;;;;;;1.77;0.60;;;;;;;17.17;60.69;98813.47;10484077;28;20032;-47
2024/01/03 10:24:57;;;;;;;1.00;0.40;;;;;;;17.16;60.27;98803.84;10530596;28;20024;-50
2024/01/03 10:30:13;;;;;;;1.60;0.50;;;;;;;17.15;61.71;98812.97;10512914;28;20344;-49
2024/01/03 10:35:14;;;;;;;2.88;0.68;;;;;;;17.19;61.43;98803.97;10519064;28;20036;-48
2024/01/03 10:40:15;;;;;;;1.40;0.50;;;;;;;17.21;61.72;98806.31;10538060;28;20036;-46
2024/01/03 10:45:16;;;;;;;1.47;0.40;;;;;;;17.23;61.20;98809.44;10516341;28;20799;-46
2024/01/03 10:50:16;;;;;;;1.58;0.50;;;;;;;17.19;61.20;98812.00;10503146;28;20290;-48
2024/01/03 10:55:19;;;;;;;1.50;0.77;;;;;;;17.20;61.97;98815.47;10535498;28;20107;-48
2024/01/03 11:00:34;;;;;;;1.63;0.50;;;;;;;17.15;62.24;98821.00;10537941;28;20032;-49
2024/01/03 11:06:02;;;;;;;1.10;0.70;;;;;;;17.11;62.23;98828.16;10538164;28;20490;-47
2024/01/03 11:11:03;;;;;;;1.33;0.50;;;;;;;17.13;60.48;98833.97;10503241;28;20051;-47
2024/01/03 11:16:05;;;;;;;2.08;1.10;;;;;;;17.11;61.19;98820.13;10537781;28;20145;-48
2024/01/03 11:21:21;;;;;;;2.15;0.40;;;;;;;17.09;60.72;98819.69;10536429;28;20475;-50
2024/01/03 11:26:52;;;;;;;2.42;0.50;;;;;;;17.06;62.44;98823.03;10511299;28;20356;-49
2024/01/03 11:32:04;;;;;;;1.45;0.40;;;;;;;17.05;61.23;98826.78;10514622;28;20028;-50
2024/01/03 11:37:06;;;;;;;1.02;0.50;;;;;;;17.00;61.34;98811.72;10513650;28;20024;-47
2024/01/03 11:42:07;;;;;;;2.28;0.47;;;;;;;16.99;61.16;98806.72;10512557;28;20027;-46
2024/01/03 11:47:07;;;;;;;2.22;0.70;;;;;;;16.97;61.43;98808.94;10510020;28;20028;-48
2024/01/03 11:52:08;;;;;;;1.27;0.47;;;;;;;16.98;62.25;98802.47;10492442;28;20035;-47
2024/01/03 11:57:08;;;;;;;1.63;0.67;;;;;;;17.01;62.34;98802.56;10516613;28;20062;-47
2024/01/03 12:02:11;;;;;;;4.03;0.75;;;;;;;17.01;61.62;98797.22;10511186;28;20304;-49
2024/01/03 12:07:13;;;;;;;2.90;0.98;;;;;;;17.04;61.95;98782.38;10509800;28;20068;-48
2024/01/03 12:12:13;;;;;;;3.55;1.48;;;;;;;17.07;60.94;98790.56;10513809;28;20052;-47
2024/01/03 12:17:23;;;;;;;2.37;0.60;;;;;;;17.07;62.18;98790.56;10505959;28;20028;-47
2024/01/03 12:22:23;;;;;;;2.47;0.50;;;;;;;17.04;62.07;98795.78;10495511;28;20339;-46
2024/01/03 12:27:24;;;;;;;1.73;0.30;;;;;;;17.03;61.11;98794.22;10493220;28;20029;-48
2024/01/03 12:32:24;;;;;;;1.80;0.70;;;;;;;17.01;62.37;98778.47;10514083;28;20031;-47
2024/01/03 12:37:25;;;;;;;2.20;0.53;;;;;;;17.05;60.82;98776.72;10519744;28;20278;-47
2024/01/03 12:42:25;;;;;;;1.67;0.40;;;;;;;17.06;61.38;98783.63;10518966;28;20948;-49
2024/01/03 12:47:25;;;;;;;1.23;0.40;;;;;;;17.06;61.23;98767.56;10534075;28;20354;-47
2024/01/03 12:52:27;;;;;;;0.80;0.30;;;;;;;17.06;62.51;98769.47;10533764;28;20801;-48
2024/01/03 12:57:28;;;;;;;1.23;0.50;;;;;;;17.06;61.08;98764.13;10533600;28;20459;-47
2024/01/03 13:02:28;;;;;;;1.77;0.53;;;;;;;17.06;61.42;98758.75;10532715;28;20016;-48
2024/01/03 13:07:28;;;;;;;1.40;0.50;;;;;;;17.02;61.28;98777.38;10526144;28;20290;-47
2024/01/03 13:12:29;;;;;;;1.33;0.50;;;;;;;17.01;61.88;98761.63;10520338;28;20527;-50
2024/01/03 13:17:29;;;;;;;1.88;0.57;;;;;;;17.00;60.90;98752.81;10533221;28;20270;-50
2024/01/03 13:22:29;;;;;;;4.57;1.00;;;;;;;17.05;60.71;98765.22;10504926;28;20028;-46
2024/01/03 13:27:29;;;;;;;4.87;1.20;;;;;;;17.06;61.07;98756.09;10525624;28;20289;-46
2024/01/03 13:32:30;;;;;;;1.57;1.00;;;;;;;17.06;61.97;98767.56;10514253;28;21023;-46
2024/01/03 13:37:30;;;;;;;3.33;0.60;;;;;;;17.08;61.08;98759.22;10532599;28;20303;-47
2024/01/03 13:42:30;;;;;;;3.08;0.63;;;;;;;17.14;61.72;98753.28;10532168;28;20817;-49
2024/01/03 13:47:31;;;;;;;2.33;0.63;;;;;;;17.14;60.92;98753.28;10532428;28;20028;-47
2024/01/03 13:52:32;;;;;;;1.87;0.60;;;;;;;17.13;61.14;98758.97;10532235;28;20282;-48
2024/01/03 13:57:32;;;;;;;3.55;0.60;;;;;;;17.14;60.67;98755.97;10532340;28;20275;-48
2024/01/03 14:02:32;;;;;;;2.60;1.40;;;;;;;17.11;61.06;98761.22;10531819;28;20078;-46
2024/01/03 14:07:33;;;;;;;2.13;0.50;;;;;;;17.09;60.63;98755.41;10513971;28;20465;-47
2024/01/03 14:12:33;;;;;;;1.20;0.40;;;;;;;17.09;61.27;98758.88;10515972;28;20377;-48
2024/01/03 14:17:33;;;;;;;1.90;0.50;;;;;;;17.10;61.26;98760.44;10539839;28;20277;-47
2024/01/03 14:22:34;;;;;;;0.90;0.33;;;;;;;17.15;60.78;98767.47;10521627;28;20274;-46
2024/01/03 14:27:34;;;;;;;4.00;0.90;;;;;;;17.16;61.53;98751.06;10539332;28;20276;-46
2024/01/03 14:32:34;;;;;;;2.85;0.90;;;;;;;17.16;60.90;98747.59;10533312;28;20109;-48
2024/01/03 14:37:35;;;;;;;1.63;0.50;;;;;;;17.14;61.80;98747.94;10506213;28;20016;-51
2024/01/03 14:42:38;;;;;;;2.10;1.23;;;;;;;17.12;62.12;98760.09;10524326;28;20090;-47
2024/01/03 14:47:38;;;;;;;1.85;0.55;;;;;;;17.13;60.72;98745.59;10520252;28;20092;-46
2024/01/03 14:52:38;;;;;;;1.03;0.40;;;;;;;17.17;61.15;98744.59;10535374;28;20073;-48
2024/01/03 14:57:39;;;;;;;1.30;0.30;;;;;;;17.20;60.71;98746.63;10532348;28;20274;-47
2024/01/03 15:02:39;;;;;;;1.73;0.40;;;;;;;17.19;61.57;98745.06;10538386;28;20028;-46
2024/01/03 15:07:39;;;;;;;2.20;0.60;;;;;;;17.19;61.12;98747.72;10537441;28;20023;-47
2024/01/03 15:12:40;;;;;;;1.57;0.60;;;;;;;17.21;61.07;98758.09;10537795;28;20282;-47
2024/01/03 15:17:40;;;;;;;2.75;0.82;;;;;;;17.22;61.24;98749.72;10519331;28;20274;-51
2024/01/03 15:22:41;;;;;;;2.40;0.40;;;;;;;17.20;61.07;98749.28;10536818;28;20024;-46
2024/01/03 15:27:46;;;;;;;2.17;0.60;;;;;;;17.18;60.74;98742.72;10536869;28;20312;-47
2024/01/03 15:32:46;;;;;;;1.15;0.47;;;;;;;17.15;61.31;98738.00;10536926;28;20031;-45
2024/01/03 15:37:46;;;;;;;1.27;0.47;;;;;;;17.15;60.86;98738.00;10535872;28;20024;-46
2024/01/03 15:42:48;;;;;;;1.30;0.70;;;;;;;17.14;61.50;98731.88;10515556;28;20284;-47
2024/01/03 15:47:48;;;;;;;2.28;0.70;;;;;;;17.15;61.53;98729.97;10532995;28;20282;-47
2024/01/03 15:52:50;;;;;;;1.02;0.38;;;;;;;17.17;60.18;98723.19;10530398;28;20028;-46
2024/01/03 15:57:51;;;;;;;1.60;0.60;;;;;;;17.14;61.42;98726.50;10511902;28;20028;-47
2024/01/03 16:02:52;;;;;;;1.42;0.60;;;;;;;17.11;60.62;98721.03;10510438;28;20017;-48
2024/01/03 16:07:52;;;;;;;1.25;0.38;;;;;;;17.14;60.14;98721.16;10510377;28;20438;-49
2024/01/03 16:12:52;;;;;;;2.20;0.50;;;;;;;17.14;61.21;98720.38;10513223;28;20059;-47
2024/01/03 16:17:53;;;;;;;3.10;0.50;;;;;;;17.14;61.14;98723.06;10508979;28;20027;-46
2024/01/03 16:22:53;;;;;;;1.35;0.50;;;;;;;17.12;60.78;98719.94;10509389;28;20346;-47
2024/01/03 16:27:54;;;;;;;1.95;0.40;;;;;;;17.16;59.94;98716.25;10490344;28;20020;-48
2024/01/03 16:32:54;;;;;;;2.42;0.47;;;;;;;17.19;61.25;98728.97;10511634;28;20081;-49
2024/01/03 16:37:54;;;;;;;3.77;0.70;;;;;;;17.18;61.42;98716.72;10510274;28;20019;-46
2024/01/03 16:42:55;;;;;;;1.47;0.50;;;;;;;17.21;61.32;98717.94;10513482;28;20803;-48
2024/01/03 16:47:55;;;;;;;1.27;0.30;;;;;;;17.18;60.00;98721.28;10508035;28;20316;-47
2024/01/03 16:52:55;;;;;;;0.93;0.40;;;;;;;17.18;61.34;98715.94;10512286;28;20074;-47
2024/01/03 16:57:56;;;;;;;1.02;0.40;;;;;;;17.20;60.31;98717.16;10489530;28;20266;-51
2024/01/03 17:03:01;;;;;;;1.30;0.60;;;;;;;17.19;60.31;98712.91;10510163;28;20047;-48
2024/01/03 17:08:02;;;;;;;1.88;0.50;;;;;;;17.15;60.31;98714.69;10533035;28;20028;-46
2024/01/03 17:13:02;;;;;;;1.55;0.40;;;;;;;17.21;59.63;98718.72;10512693;28;20391;-47
2024/01/03 17:18:03;;;;;;;1.37;0.43;;;;;;;17.19;60.18;98723.63;10532947;28;20371;-48
2024/01/03 17:23:03;;;;;;;1.05;0.40;;;;;;;17.16;59.65;98724.28;10506096;28;20294;-48
2024/01/03 17:28:04;;;;;;;1.15;0.40;;;;;;;17.19;60.38;98722.84;10531158;28;20055;-46
2024/01/03 17:33:04;;;;;;;1.55;0.30;;;;;;;17.45;60.81;98727.88;10519724;28;20028;-45
2024/01/03 17:38:04;;;;;;;1.17;0.50;;;;;;;17.48;59.91;98730.66;10520682;28;20027;-49
2024/01/03 17:43:05;;;;;;;1.63;0.33;;;;;;;17.43;61.50;98730.88;10506533;28;20036;-47
2024/01/03 17:48:05;;;;;;;2.03;0.70;;;;;;;17.37;61.10;98724.16;10491950;28;20345;-51
2024/01/03 17:53:06;;;;;;;3.03;0.47;;;;;;;17.33;61.04;98734.00;10500443;28;20305;-48
2024/01/03 17:58:08;;;;;;;2.23;0.40;;;;;;;17.29;61.83;98726.97;10514527;28;20024;-47
2024/01/03 18:03:08;;;;;;;2.90;0.63;;;;;;;17.24;61.93;98730.66;10512415;28;20293;-46
2024/01/03 18:08:09;;;;;;;1.13;0.43;;;;;;;17.20;61.23;98733.22;10518893;28;20371;-50
2024/01/03 18:13:09;;;;;;;1.05;0.30;;;;;;;17.19;61.62;98736.25;10515100;28;20297;-50
2024/01/03 18:18:10;;;;;;;1.00;0.30;;;;;;;17.17;61.74;98735.78;10515532;28;20025;-50
2024/01/03 18:23:14;;;;;;;0.98;0.40;;;;;;;17.19;60.65;98745.06;10515796;28;20028;-48
2024/01/03 18:28:15;;;;;;;1.95;0.85;;;;;;;17.18;61.68;98756.88;10529844;28;20597;-49
2024/01/03 18:33:17;;;;;;;1.73;0.73;;;;;;;17.14;60.84;98774.72;10516897;28;20024;-51
2024/01/03 18:38:19;;;;;;;5.13;0.70;;;;;;;17.12;60.94;98779.63;10515360;28;20032;-46
2024/01/03 18:43:20;;;;;;;2.35;0.60;;;;;;;17.14;61.58;98782.75;10496330;28;20023;-45
2024/01/03 18:48:20;;;;;;;2.67;0.65;;;;;;;17.20;60.78;98791.38;10529343;28;20467;-46
2024/01/03 18:53:27;;;;;;;2.60;0.90;;;;;;;17.22;60.33;98794.47;10503329;28;20111;-47
2024/01/03 18:58:28;;;;;;;1.88;0.38;;;;;;;17.30;61.12;98771.41;10535871;28;20278;-47
2024/01/03 19:03:28;;;;;;;1.33;0.70;;;;;;;17.28;60.15;98789.69;10537308;28;20032;-46
2024/01/03 19:08:28;;;;;;;2.17;0.77;;;;;;;17.21;60.70;98798.28;10537422;28;20725;-49
2024/01/03 19:13:29;;;;;;;3.47;0.50;;;;;;;17.19;60.40;98813.91;10530387;28;20282;-47
2024/01/03 19:18:29;;;;;;;4.03;1.30;;;;;;;17.19;61.43;98806.66;10512415;28;20780;-45
2024/01/03 19:23:29;;;;;;;1.70;0.43;;;;;;;17.25;62.06;98810.66;10536742;28;20301;-48
2024/01/03 19:28:30;;;;;;;4.30;1.20;;;;;;;17.24;62.11;98811.00;10536065;28;20755;-44
2024/01/03 19:33:31;;;;;;;2.55;0.90;;;;;;;17.21;61.03;98825.84;10517989;28;20265;-47
2024/01/03 19:38:31;;;;;;;4.47;0.55;;;;;;;17.23;61.34;98814.78;10533885;28;20039;-46
2024/01/03 19:43:32;;;;;;;2.63;1.10;;;;;;;17.22;61.43;98827.41;10524277;28;20043;-47
2024/01/03 19:48:34;;;;;;;3.37;0.70;;;;;;;17.20;60.97;98818.94;10533328;28;20027;-46
2024/01/03 19:53:34;;;;;;;4.22;0.60;;;;;;;17.22;62.31;98826.63;10515982;28;20278;-46
2024/01/03 19:58:34;;;;;;;2.97;0.77;;;;;;;17.21;61.44;98823.16;10533516;28;20023;-50
2024/01/03 20:03:35;;;;;;;2.92;0.50;;;;;;;17.21;61.91;98831.19;10535134;28;20285;-46
2024/01/03 20:08:36;;;;;;;1.57;0.50;;;;;;;17.21;61.63;98839.22;10533039;28;20089;-46
2024/01/03 20:13:36;;;;;;;1.75;0.40;;;;;;;17.24;61.51;98851.19;10531223;28;20297;-48
2024/01/03 20:18:37;;;;;;;1.20;0.43;;;;;;;17.24;61.81;98848.50;10533553;28;20411;-49
2024/01/03 20:23:39;;;;;;;2.25;0.57;;;;;;;17.22;62.38;98856.09;10513156;28;20301;-45
2024/01/03 20:28:42;;;;;;;2.72;0.60;;;;;;;17.21;61.41;98857.97;10528299;28;20040;-45
2024/01/03 20:33:43;;;;;;;4.80;0.70;;;;;;;17.18;61.23;98868.59;10532738;28;20016;-46
2024/01/03 20:38:43;;;;;;;3.88;0.55;;;;;;;17.19;61.43;98876.28;10506605;28;20029;-47
2024/01/03 20:43:43;;;;;;;1.40;0.43;;;;;;;17.17;61.06;98881.19;10531381;28;20028;-47
2024/01/03 20:48:44;;;;;;;1.00;0.40;;;;;;;17.14;60.91;98892.53;10534013;28;20331;-45
2024/01/03 20:53:44;;;;;;;2.37;0.77;;;;;;;17.15;62.03;98896.00;10534288;28;20813;-49
2024/01/03 20:58:45;;;;;;;3.45;0.70;;;;;;;17.17;62.29;98905.28;10533483;28;20276;-46
2024/01/03 21:03:46;;;;;;;2.33;0.40;;;;;;;17.16;62.12;98902.91;10533856;28;20031;-49
2024/01/03 21:08:47;;;;;;;3.80;1.15;;;;;;;17.19;61.02;98913.78;10533115;28;20276;-49
2024/01/03 21:13:48;;;;;;;2.10;0.73;;;;;;;17.21;61.78;98924.94;10515325;28;20041;-47
2024/01/03 21:18:48;;;;;;;3.35;0.52;;;;;;;17.21;61.89;98930.28;10532996;28;20637;-44
2024/01/03 21:23:49;;;;;;;2.47;0.67;;;;;;;17.27;60.73;98938.91;10532185;28;20024;-48
2024/01/03 21:28:49;;;;;;;1.33;0.55;;;;;;;17.24;60.51;98942.25;10532831;28;20035;-45
2024/01/03 21:33:50;;;;;;;1.77;0.95;;;;;;;17.24;60.88;98950.28;10515045;28;20028;-45
2024/01/03 21:38:52;;;;;;;1.02;0.60;;;;;;;17.22;62.05;98964.00;10532469;28;20073;-47
2024/01/03 21:43:53;;;;;;;1.42;0.40;;;;;;;17.22;61.34;98964.00;10532760;28;20043;-47
2024/01/03 21:48:53;;;;;;;2.37;0.37;;;;;;;17.25;60.58;98975.94;10532260;28;20028;-47
2024/01/03 21:53:54;;;;;;;0.98;0.32;;;;;;;17.25;60.56;98981.31;10518871;28;20276;-46
2024/01/03 21:58:55;;;;;;;1.17;0.40;;;;;;;17.22;60.67;98998.03;10532129;28;20039;-45
2024/01/03 22:03:55;;;;;;;0.60;0.30;;;;;;;17.22;60.54;99000.72;10532419;28;20054;-46
2024/01/03 22:08:55;;;;;;;3.50;0.57;;;;;;;17.24;61.61;99009.19;10523495;28;20281;-45
2024/01/03 22:13:56;;;;;;;2.40;0.50;;;;;;;17.24;60.09;99004.63;10482164;28;20301;-46
2024/01/03 22:18:56;;;;;;;2.10;0.70;;;;;;;17.23;60.08;99026.38;10490129;28;20267;-47
2024/01/03 22:23:57;;;;;;;2.03;0.50;;;;;;;17.22;61.60;99035.53;10490061;28;20576;-50
2024/01/03 22:28:58;;;;;;;1.58;0.50;;;;;;;17.25;60.92;99035.66;10490081;28;20028;-46
2024/01/03 22:33:59;;;;;;;1.13;0.32;;;;;;;17.27;60.73;99047.94;10494434;28;20440;-46
2024/01/03 22:39:00;;;;;;;1.80;0.40;;;;;;;17.29;60.16;99061.81;10497925;28;20024;-45
2024/01/03 22:44:01;;;;;;;1.47;0.50;;;;;;;17.28;59.81;99066.34;10497035;28;20286;-44
2024/01/03 22:49:01;;;;;;;2.58;0.70;;;;;;;17.25;59.84;99070.47;10497323;28;20634;-47
2024/01/03 22:54:06;;;;;;;0.60;0.30;;;;;;;17.27;61.39;99080.09;10496384;28;20050;-46
2024/01/03 22:59:07;;;;;;;1.05;0.43;;;;;;;17.25;59.79;99089.22;10478687;28;20783;-45
2024/01/03 23:04:09;;;;;;;1.85;0.45;;;;;;;17.24;61.14;99095.69;10496462;28;20029;-47
2024/01/03 23:09:09;;;;;;;1.45;0.50;;;;;;;17.27;60.76;99113.00;10489778;28;20365;-47
2024/01/03 23:14:10;;;;;;;1.50;0.50;;;;;;;17.26;60.12;99124.84;10535612;28;20043;-45
2024/01/03 23:19:10;;;;;;;2.38;0.38;;;;;;;17.23;59.86;99126.28;10538028;28;20089;-47